Data at: 1711 UTC 20 Aug 2017

METAR for:KMNH (Mountain Pass Arpt, CO, US)
Text:KMNH 201650Z AUTO 02007KT 10SM CLR 24/03 A3027 RMK AO2
Temperature: 24.0°C ( 75°F)
Dewpoint: 3.0°C ( 37°F) [RH = 25%]
Pressure (altimeter):30.27 inches Hg (1025.1 mb)
Winds:from the NNE (20 degrees) at 8 MPH (7 knots; 3.6 m/s)
Visibility:10 or more sm (16+ km)
Ceiling:at least 12,000 feet AGL
Clouds:sky clear below 12,000 feet AGL
QC Flag:automated observation with no human augmentation
Text:KMNH 201631Z AUTO 04008KT 10SM CLR 24/03 A3027 RMK AO2
Temperature: 24.0°C ( 75°F)
Dewpoint: 3.0°C ( 37°F) [RH = 25%]
Pressure (altimeter):30.27 inches Hg (1025.1 mb)
Winds:from the NE (40 degrees) at 9 MPH (8 knots; 4.1 m/s)
Visibility:10 or more sm (16+ km)
Ceiling:at least 12,000 feet AGL
Clouds:sky clear below 12,000 feet AGL
QC Flag:automated observation with no human augmentation
Text:KMNH 201611Z AUTO 01007KT 10SM CLR 23/03 A3027 RMK AO2
Temperature: 23.0°C ( 73°F)
Dewpoint: 3.0°C ( 37°F) [RH = 27%]
Pressure (altimeter):30.27 inches Hg (1025.1 mb)
Winds:from the N (10 degrees) at 8 MPH (7 knots; 3.6 m/s)
Visibility:10 or more sm (16+ km)
Ceiling:at least 12,000 feet AGL
Clouds:sky clear below 12,000 feet AGL
QC Flag:automated observation with no human augmentation
Text:KMNH 201551Z AUTO 35006KT 10SM CLR 22/05 A3027 RMK AO2
Temperature: 22.0°C ( 72°F)
Dewpoint: 5.0°C ( 41°F) [RH = 33%]
Pressure (altimeter):30.27 inches Hg (1025.1 mb)
Winds:from the N (350 degrees) at 7 MPH (6 knots; 3.1 m/s)
Visibility:10 or more sm (16+ km)
Ceiling:at least 12,000 feet AGL
Clouds:sky clear below 12,000 feet AGL
QC Flag:automated observation with no human augmentation
Text:KMNH 201531Z AUTO 31004KT 10SM CLR 22/07 A3027 RMK AO2
Temperature: 22.0°C ( 72°F)
Dewpoint: 7.0°C ( 45°F) [RH = 38%]
Pressure (altimeter):30.27 inches Hg (1025.1 mb)
Winds:from the NW (310 degrees) at 5 MPH (4 knots; 2.1 m/s)
Visibility:10 or more sm (16+ km)
Ceiling:at least 12,000 feet AGL
Clouds:sky clear below 12,000 feet AGL
QC Flag:automated observation with no human augmentation
Text:KMNH 201511Z AUTO 30004KT 10SM CLR 21/06 A3026 RMK AO2
Temperature: 21.0°C ( 70°F)
Dewpoint: 6.0°C ( 43°F) [RH = 38%]
Pressure (altimeter):30.26 inches Hg (1024.8 mb)
Winds:from the WNW (300 degrees) at 5 MPH (4 knots; 2.1 m/s)
Visibility:10 or more sm (16+ km)
Ceiling:at least 12,000 feet AGL
Clouds:sky clear below 12,000 feet AGL
QC Flag:automated observation with no human augmentation
Text:KMNH 201449Z AUTO 29005KT 10SM CLR 21/07 A3025 RMK AO2
Temperature: 21.0°C ( 70°F)
Dewpoint: 7.0°C ( 45°F) [RH = 40%]
Pressure (altimeter):30.25 inches Hg (1024.5 mb)
Winds:from the WNW (290 degrees) at 6 MPH (5 knots; 2.6 m/s)
Visibility:10 or more sm (16+ km)
Ceiling:at least 12,000 feet AGL
Clouds:sky clear below 12,000 feet AGL
QC Flag:automated observation with no human augmentation
Text:KMNH 201430Z AUTO 27005KT 10SM CLR 20/06 A3025 RMK AO2
Temperature: 20.0°C ( 68°F)
Dewpoint: 6.0°C ( 43°F) [RH = 40%]
Pressure (altimeter):30.25 inches Hg (1024.5 mb)
Winds:from the W (270 degrees) at 6 MPH (5 knots; 2.6 m/s)
Visibility:10 or more sm (16+ km)
Ceiling:at least 12,000 feet AGL
Clouds:sky clear below 12,000 feet AGL
QC Flag:automated observation with no human augmentation
Text:KMNH 201410Z AUTO 27006KT 10SM CLR 19/06 A3025 RMK AO2
Temperature: 19.0°C ( 66°F)
Dewpoint: 6.0°C ( 43°F) [RH = 43%]
Pressure (altimeter):30.25 inches Hg (1024.5 mb)
Winds:from the W (270 degrees) at 7 MPH (6 knots; 3.1 m/s)
Visibility:10 or more sm (16+ km)
Ceiling:at least 12,000 feet AGL
Clouds:sky clear below 12,000 feet AGL
QC Flag:automated observation with no human augmentation
Text:KMNH 201349Z AUTO 27006KT 10SM CLR 18/06 A3024 RMK AO2
Temperature: 18.0°C ( 64°F)
Dewpoint: 6.0°C ( 43°F) [RH = 45%]
Pressure (altimeter):30.24 inches Hg (1024.1 mb)
Winds:from the W (270 degrees) at 7 MPH (6 knots; 3.1 m/s)
Visibility:10 or more sm (16+ km)
Ceiling:at least 12,000 feet AGL
Clouds:sky clear below 12,000 feet AGL
QC Flag:automated observation with no human augmentation
Text:KMNH 201330Z AUTO 26006KT 10SM CLR 16/06 A3024 RMK AO2
Temperature: 16.0°C ( 61°F)
Dewpoint: 6.0°C ( 43°F) [RH = 51%]
Pressure (altimeter):30.24 inches Hg (1024.1 mb)
Winds:from the W (260 degrees) at 7 MPH (6 knots; 3.1 m/s)
Visibility:10 or more sm (16+ km)
Ceiling:at least 12,000 feet AGL
Clouds:sky clear below 12,000 feet AGL
QC Flag:automated observation with no human augmentation
Text:KMNH 201308Z AUTO 25008KT 10SM CLR 15/05 A3024 RMK AO2
Temperature: 15.0°C ( 59°F)
Dewpoint: 5.0°C ( 41°F) [RH = 51%]
Pressure (altimeter):30.24 inches Hg (1024.1 mb)
Winds:from the WSW (250 degrees) at 9 MPH (8 knots; 4.1 m/s)
Visibility:10 or more sm (16+ km)
Ceiling:at least 12,000 feet AGL
Clouds:sky clear below 12,000 feet AGL
QC Flag:automated observation with no human augmentation
Text:KMNH 201251Z AUTO 25008KT 10SM CLR 13/03 A3023 RMK AO2
Temperature: 13.0°C ( 55°F)
Dewpoint: 3.0°C ( 37°F) [RH = 51%]
Pressure (altimeter):30.23 inches Hg (1023.8 mb)
Winds:from the WSW (250 degrees) at 9 MPH (8 knots; 4.1 m/s)
Visibility:10 or more sm (16+ km)
Ceiling:at least 12,000 feet AGL
Clouds:sky clear below 12,000 feet AGL
QC Flag:automated observation with no human augmentation
Text:KMNH 201230Z AUTO 24008KT 10SM CLR 13/03 A3022 RMK AO2
Temperature: 13.0°C ( 55°F)
Dewpoint: 3.0°C ( 37°F) [RH = 51%]
Pressure (altimeter):30.22 inches Hg (1023.5 mb)
Winds:from the WSW (240 degrees) at 9 MPH (8 knots; 4.1 m/s)
Visibility:10 or more sm (16+ km)
Ceiling:at least 12,000 feet AGL
Clouds:sky clear below 12,000 feet AGL
QC Flag:automated observation with no human augmentation
Text:KMNH 201210Z AUTO 25009KT 10SM CLR 12/04 A3022 RMK AO2
Temperature: 12.0°C ( 54°F)
Dewpoint: 4.0°C ( 39°F) [RH = 58%]
Pressure (altimeter):30.22 inches Hg (1023.5 mb)
Winds:from the WSW (250 degrees) at 10 MPH (9 knots; 4.6 m/s)
Visibility:10 or more sm (16+ km)
Ceiling:at least 12,000 feet AGL
Clouds:sky clear below 12,000 feet AGL
QC Flag:automated observation with no human augmentation
Text:KMNH 201150Z AUTO 25009KT 10SM CLR 12/04 A3022 RMK AO2
Temperature: 12.0°C ( 54°F)
Dewpoint: 4.0°C ( 39°F) [RH = 58%]
Pressure (altimeter):30.22 inches Hg (1023.5 mb)
Winds:from the WSW (250 degrees) at 10 MPH (9 knots; 4.6 m/s)
Visibility:10 or more sm (16+ km)
Ceiling:at least 12,000 feet AGL
Clouds:sky clear below 12,000 feet AGL
QC Flag:automated observation with no human augmentation
Text:KMNH 201131Z AUTO 24007KT 10SM CLR 13/04 A3021 RMK AO2
Temperature: 13.0°C ( 55°F)
Dewpoint: 4.0°C ( 39°F) [RH = 54%]
Pressure (altimeter):30.21 inches Hg (1023.1 mb)
Winds:from the WSW (240 degrees) at 8 MPH (7 knots; 3.6 m/s)
Visibility:10 or more sm (16+ km)
Ceiling:at least 12,000 feet AGL
Clouds:sky clear below 12,000 feet AGL
QC Flag:automated observation with no human augmentation
Text:KMNH 201111Z AUTO 25006KT 10SM CLR 12/05 A3021 RMK AO2
Temperature: 12.0°C ( 54°F)
Dewpoint: 5.0°C ( 41°F) [RH = 62%]
Pressure (altimeter):30.21 inches Hg (1023.1 mb)
Winds:from the WSW (250 degrees) at 7 MPH (6 knots; 3.1 m/s)
Visibility:10 or more sm (16+ km)
Ceiling:at least 12,000 feet AGL
Clouds:sky clear below 12,000 feet AGL
QC Flag:automated observation with no human augmentation
Text:KMNH 201051Z AUTO 24006KT 10SM CLR 13/05 A3021 RMK AO2
Temperature: 13.0°C ( 55°F)
Dewpoint: 5.0°C ( 41°F) [RH = 58%]
Pressure (altimeter):30.21 inches Hg (1023.1 mb)
Winds:from the WSW (240 degrees) at 7 MPH (6 knots; 3.1 m/s)
Visibility:10 or more sm (16+ km)
Ceiling:at least 12,000 feet AGL
Clouds:sky clear below 12,000 feet AGL
QC Flag:automated observation with no human augmentation
Text:KMNH 201031Z AUTO 26007KT 10SM CLR 12/05 A3021 RMK AO2
Temperature: 12.0°C ( 54°F)
Dewpoint: 5.0°C ( 41°F) [RH = 62%]
Pressure (altimeter):30.21 inches Hg (1023.1 mb)
Winds:from the W (260 degrees) at 8 MPH (7 knots; 3.6 m/s)
Visibility:10 or more sm (16+ km)
Ceiling:at least 12,000 feet AGL
Clouds:sky clear below 12,000 feet AGL
QC Flag:automated observation with no human augmentation
Text:KMNH 201011Z AUTO 24006KT 10SM CLR 15/05 A3021 RMK AO2
Temperature: 15.0°C ( 59°F)
Dewpoint: 5.0°C ( 41°F) [RH = 51%]
Pressure (altimeter):30.21 inches Hg (1023.1 mb)
Winds:from the WSW (240 degrees) at 7 MPH (6 knots; 3.1 m/s)
Visibility:10 or more sm (16+ km)
Ceiling:at least 12,000 feet AGL
Clouds:sky clear below 12,000 feet AGL
QC Flag:automated observation with no human augmentation
Text:KMNH 200950Z AUTO 25006KT 10SM CLR 12/05 A3022 RMK AO2
Temperature: 12.0°C ( 54°F)
Dewpoint: 5.0°C ( 41°F) [RH = 62%]
Pressure (altimeter):30.22 inches Hg (1023.5 mb)
Winds:from the WSW (250 degrees) at 7 MPH (6 knots; 3.1 m/s)
Visibility:10 or more sm (16+ km)
Ceiling:at least 12,000 feet AGL
Clouds:sky clear below 12,000 feet AGL
QC Flag:automated observation with no human augmentation
Text:KMNH 200929Z AUTO 25007KT 10SM CLR 13/05 A3022 RMK AO2
Temperature: 13.0°C ( 55°F)
Dewpoint: 5.0°C ( 41°F) [RH = 58%]
Pressure (altimeter):30.22 inches Hg (1023.5 mb)
Winds:from the WSW (250 degrees) at 8 MPH (7 knots; 3.6 m/s)
Visibility:10 or more sm (16+ km)
Ceiling:at least 12,000 feet AGL
Clouds:sky clear below 12,000 feet AGL
QC Flag:automated observation with no human augmentation
Text:KMNH 200911Z AUTO 25009KT 10SM CLR 13/05 A3022 RMK AO2
Temperature: 13.0°C ( 55°F)
Dewpoint: 5.0°C ( 41°F) [RH = 58%]
Pressure (altimeter):30.22 inches Hg (1023.5 mb)
Winds:from the WSW (250 degrees) at 10 MPH (9 knots; 4.6 m/s)
Visibility:10 or more sm (16+ km)
Ceiling:at least 12,000 feet AGL
Clouds:sky clear below 12,000 feet AGL
QC Flag:automated observation with no human augmentation
Text:KMNH 200850Z AUTO 23006KT 10SM CLR 15/04 A3022 RMK AO2
Temperature: 15.0°C ( 59°F)
Dewpoint: 4.0°C ( 39°F) [RH = 48%]
Pressure (altimeter):30.22 inches Hg (1023.5 mb)
Winds:from the SW (230 degrees) at 7 MPH (6 knots; 3.1 m/s)
Visibility:10 or more sm (16+ km)
Ceiling:at least 12,000 feet AGL
Clouds:sky clear below 12,000 feet AGL
QC Flag:automated observation with no human augmentation
Text:KMNH 200829Z AUTO 23007KT 10SM CLR 15/05 A3022 RMK AO2
Temperature: 15.0°C ( 59°F)
Dewpoint: 5.0°C ( 41°F) [RH = 51%]
Pressure (altimeter):30.22 inches Hg (1023.5 mb)
Winds:from the SW (230 degrees) at 8 MPH (7 knots; 3.6 m/s)
Visibility:10 or more sm (16+ km)
Ceiling:at least 12,000 feet AGL
Clouds:sky clear below 12,000 feet AGL
QC Flag:automated observation with no human augmentation
Text:KMNH 200810Z AUTO 23007KT 10SM CLR 15/05 A3022 RMK AO2
Temperature: 15.0°C ( 59°F)
Dewpoint: 5.0°C ( 41°F) [RH = 51%]
Pressure (altimeter):30.22 inches Hg (1023.5 mb)
Winds:from the SW (230 degrees) at 8 MPH (7 knots; 3.6 m/s)
Visibility:10 or more sm (16+ km)
Ceiling:at least 12,000 feet AGL
Clouds:sky clear below 12,000 feet AGL
QC Flag:automated observation with no human augmentation
Text:KMNH 200750Z AUTO 22009KT 10SM CLR 13/05 A3022 RMK AO2
Temperature: 13.0°C ( 55°F)
Dewpoint: 5.0°C ( 41°F) [RH = 58%]
Pressure (altimeter):30.22 inches Hg (1023.5 mb)
Winds:from the SW (220 degrees) at 10 MPH (9 knots; 4.6 m/s)
Visibility:10 or more sm (16+ km)
Ceiling:at least 12,000 feet AGL
Clouds:sky clear below 12,000 feet AGL
QC Flag:automated observation with no human augmentation
Text:KMNH 200731Z AUTO 22008KT 10SM CLR 12/06 A3023 RMK AO2
Temperature: 12.0°C ( 54°F)
Dewpoint: 6.0°C ( 43°F) [RH = 67%]
Pressure (altimeter):30.23 inches Hg (1023.8 mb)
Winds:from the SW (220 degrees) at 9 MPH (8 knots; 4.1 m/s)
Visibility:10 or more sm (16+ km)
Ceiling:at least 12,000 feet AGL
Clouds:sky clear below 12,000 feet AGL
QC Flag:automated observation with no human augmentation
Text:KMNH 200711Z AUTO 21008KT 10SM CLR 13/06 A3023 RMK AO2
Temperature: 13.0°C ( 55°F)
Dewpoint: 6.0°C ( 43°F) [RH = 62%]
Pressure (altimeter):30.23 inches Hg (1023.8 mb)
Winds:from the SSW (210 degrees) at 9 MPH (8 knots; 4.1 m/s)
Visibility:10 or more sm (16+ km)
Ceiling:at least 12,000 feet AGL
Clouds:sky clear below 12,000 feet AGL
QC Flag:automated observation with no human augmentation
Text:KMNH 200650Z AUTO 21008KT 10SM CLR 12/06 A3024 RMK AO2
Temperature: 12.0°C ( 54°F)
Dewpoint: 6.0°C ( 43°F) [RH = 67%]
Pressure (altimeter):30.24 inches Hg (1024.1 mb)
Winds:from the SSW (210 degrees) at 9 MPH (8 knots; 4.1 m/s)
Visibility:10 or more sm (16+ km)
Ceiling:at least 12,000 feet AGL
Clouds:sky clear below 12,000 feet AGL
QC Flag:automated observation with no human augmentation
Text:KMNH 200630Z AUTO 21007KT 10SM CLR 12/06 A3024 RMK AO2
Temperature: 12.0°C ( 54°F)
Dewpoint: 6.0°C ( 43°F) [RH = 67%]
Pressure (altimeter):30.24 inches Hg (1024.1 mb)
Winds:from the SSW (210 degrees) at 8 MPH (7 knots; 3.6 m/s)
Visibility:10 or more sm (16+ km)
Ceiling:at least 12,000 feet AGL
Clouds:sky clear below 12,000 feet AGL
QC Flag:automated observation with no human augmentation
Text:KMNH 200610Z AUTO 20007KT 10SM CLR 11/06 A3024 RMK AO2
Temperature: 11.0°C ( 52°F)
Dewpoint: 6.0°C ( 43°F) [RH = 71%]
Pressure (altimeter):30.24 inches Hg (1024.1 mb)
Winds:from the SSW (200 degrees) at 8 MPH (7 knots; 3.6 m/s)
Visibility:10 or more sm (16+ km)
Ceiling:at least 12,000 feet AGL
Clouds:sky clear below 12,000 feet AGL
QC Flag:automated observation with no human augmentation
Text:KMNH 200549Z AUTO 21007KT 10SM CLR 13/06 A3024 RMK AO2
Temperature: 13.0°C ( 55°F)
Dewpoint: 6.0°C ( 43°F) [RH = 62%]
Pressure (altimeter):30.24 inches Hg (1024.1 mb)
Winds:from the SSW (210 degrees) at 8 MPH (7 knots; 3.6 m/s)
Visibility:10 or more sm (16+ km)
Ceiling:at least 12,000 feet AGL
Clouds:sky clear below 12,000 feet AGL
QC Flag:automated observation with no human augmentation
Text:KMNH 200531Z AUTO 21008KT 10SM CLR 13/05 A3025 RMK AO2
Temperature: 13.0°C ( 55°F)
Dewpoint: 5.0°C ( 41°F) [RH = 58%]
Pressure (altimeter):30.25 inches Hg (1024.5 mb)
Winds:from the SSW (210 degrees) at 9 MPH (8 knots; 4.1 m/s)
Visibility:10 or more sm (16+ km)
Ceiling:at least 12,000 feet AGL
Clouds:sky clear below 12,000 feet AGL
QC Flag:automated observation with no human augmentation
Text:KMNH 200509Z AUTO 20006KT 10SM CLR 13/05 A3025 RMK AO2
Temperature: 13.0°C ( 55°F)
Dewpoint: 5.0°C ( 41°F) [RH = 58%]
Pressure (altimeter):30.25 inches Hg (1024.5 mb)
Winds:from the SSW (200 degrees) at 7 MPH (6 knots; 3.1 m/s)
Visibility:10 or more sm (16+ km)
Ceiling:at least 12,000 feet AGL
Clouds:sky clear below 12,000 feet AGL
QC Flag:automated observation with no human augmentation
Text:KMNH 200451Z AUTO 18004KT 10SM CLR 14/05 A3025 RMK AO2
Temperature: 14.0°C ( 57°F)
Dewpoint: 5.0°C ( 41°F) [RH = 55%]
Pressure (altimeter):30.25 inches Hg (1024.5 mb)
Winds:from the S (180 degrees) at 5 MPH (4 knots; 2.1 m/s)
Visibility:10 or more sm (16+ km)
Ceiling:at least 12,000 feet AGL
Clouds:sky clear below 12,000 feet AGL
QC Flag:automated observation with no human augmentation
Text:KMNH 200431Z AUTO 17003KT 10SM CLR 15/05 A3025 RMK AO2
Temperature: 15.0°C ( 59°F)
Dewpoint: 5.0°C ( 41°F) [RH = 51%]
Pressure (altimeter):30.25 inches Hg (1024.5 mb)
Winds:from the S (170 degrees) at 3 MPH (3 knots; 1.5 m/s)
Visibility:10 or more sm (16+ km)
Ceiling:at least 12,000 feet AGL
Clouds:sky clear below 12,000 feet AGL
QC Flag:automated observation with no human augmentation
Text:KMNH 200408Z AUTO 00000KT 10SM CLR 18/03 A3025 RMK AO2
Temperature: 18.0°C ( 64°F)
Dewpoint: 3.0°C ( 37°F) [RH = 37%]
Pressure (altimeter):30.25 inches Hg (1024.5 mb)
Winds:calm
Visibility:10 or more sm (16+ km)
Ceiling:at least 12,000 feet AGL
Clouds:sky clear below 12,000 feet AGL
QC Flag:automated observation with no human augmentation
Text:KMNH 200350Z AUTO 00000KT 10SM CLR 18/03 A3025 RMK AO2
Temperature: 18.0°C ( 64°F)
Dewpoint: 3.0°C ( 37°F) [RH = 37%]
Pressure (altimeter):30.25 inches Hg (1024.5 mb)
Winds:calm
Visibility:10 or more sm (16+ km)
Ceiling:at least 12,000 feet AGL
Clouds:sky clear below 12,000 feet AGL
QC Flag:automated observation with no human augmentation
Text:KMNH 200330Z AUTO 00000KT 10SM CLR 19/03 A3025 RMK AO2
Temperature: 19.0°C ( 66°F)
Dewpoint: 3.0°C ( 37°F) [RH = 34%]
Pressure (altimeter):30.25 inches Hg (1024.5 mb)
Winds:calm
Visibility:10 or more sm (16+ km)
Ceiling:at least 12,000 feet AGL
Clouds:sky clear below 12,000 feet AGL
QC Flag:automated observation with no human augmentation
Text:KMNH 200310Z AUTO 35009KT 10SM SCT120 19/05 A3025 RMK AO2
Temperature: 19.0°C ( 66°F)
Dewpoint: 5.0°C ( 41°F) [RH = 40%]
Pressure (altimeter):30.25 inches Hg (1024.5 mb)
Winds:from the N (350 degrees) at 10 MPH (9 knots; 4.6 m/s)
Visibility:10 or more sm (16+ km)
Ceiling:at least 12,000 feet AGL
Clouds: scattered clouds at 12000 feet AGL
QC Flag:automated observation with no human augmentation
Text:KMNH 200250Z AUTO 21008KT 10SM SCT120 19/05 A3023 RMK AO2
Temperature: 19.0°C ( 66°F)
Dewpoint: 5.0°C ( 41°F) [RH = 40%]
Pressure (altimeter):30.23 inches Hg (1023.8 mb)
Winds:from the SSW (210 degrees) at 9 MPH (8 knots; 4.1 m/s)
Visibility:10 or more sm (16+ km)
Ceiling:at least 12,000 feet AGL
Clouds: scattered clouds at 12000 feet AGL
QC Flag:automated observation with no human augmentation
Text:KMNH 200231Z AUTO 21009KT 10SM SCT120 21/03 A3021 RMK AO2 LTG DSNT NE
Temperature: 21.0°C ( 70°F)
Dewpoint: 3.0°C ( 37°F) [RH = 30%]
Pressure (altimeter):30.21 inches Hg (1023.1 mb)
Winds:from the SSW (210 degrees) at 10 MPH (9 knots; 4.6 m/s)
Visibility:10 or more sm (16+ km)
Ceiling:at least 12,000 feet AGL
Clouds: scattered clouds at 12000 feet AGL
QC Flag:automated observation with no human augmentation
Text:KMNH 200211Z AUTO 29008KT 10SM SCT120 20/03 A3021 RMK AO2
Temperature: 20.0°C ( 68°F)
Dewpoint: 3.0°C ( 37°F) [RH = 32%]
Pressure (altimeter):30.21 inches Hg (1023.1 mb)
Winds:from the WNW (290 degrees) at 9 MPH (8 knots; 4.1 m/s)
Visibility:10 or more sm (16+ km)
Ceiling:at least 12,000 feet AGL
Clouds: scattered clouds at 12000 feet AGL
QC Flag:automated observation with no human augmentation
Text:KMNH 200151Z AUTO 26008KT 10SM SCT120 19/06 A3020 RMK AO2
Temperature: 19.0°C ( 66°F)
Dewpoint: 6.0°C ( 43°F) [RH = 43%]
Pressure (altimeter):30.20 inches Hg (1022.8 mb)
Winds:from the W (260 degrees) at 9 MPH (8 knots; 4.1 m/s)
Visibility:10 or more sm (16+ km)
Ceiling:at least 12,000 feet AGL
Clouds: scattered clouds at 12000 feet AGL
QC Flag:automated observation with no human augmentation
Text:KMNH 200130Z AUTO 29006KT 10SM SCT100 SCT120 20/06 A3019 RMK AO2 LTG DSNT S
Temperature: 20.0°C ( 68°F)
Dewpoint: 6.0°C ( 43°F) [RH = 40%]
Pressure (altimeter):30.19 inches Hg (1022.4 mb)
Winds:from the WNW (290 degrees) at 7 MPH (6 knots; 3.1 m/s)
Visibility:10 or more sm (16+ km)
Ceiling:at least 12,000 feet AGL
Clouds: scattered clouds at 10000 feet AGL, scattered clouds at 12000 feet AGL
QC Flag:automated observation with no human augmentation
Text:KMNH 200110Z AUTO 30008KT 10SM SCT090 BKN120 20/06 A3019 RMK AO2
Temperature: 20.0°C ( 68°F)
Dewpoint: 6.0°C ( 43°F) [RH = 40%]
Pressure (altimeter):30.19 inches Hg (1022.4 mb)
Winds:from the WNW (300 degrees) at 9 MPH (8 knots; 4.1 m/s)
Visibility:10 or more sm (16+ km)
Ceiling:12000 feet AGL
Clouds: scattered clouds at 9000 feet AGL, broken clouds at 12000 feet AGL
QC Flag:automated observation with no human augmentation
Text:KMNH 200050Z AUTO 24004KT 10SM CLR 20/06 A3020 RMK AO2
Temperature: 20.0°C ( 68°F)
Dewpoint: 6.0°C ( 43°F) [RH = 40%]
Pressure (altimeter):30.20 inches Hg (1022.8 mb)
Winds:from the WSW (240 degrees) at 5 MPH (4 knots; 2.1 m/s)
Visibility:10 or more sm (16+ km)
Ceiling:at least 12,000 feet AGL
Clouds:sky clear below 12,000 feet AGL
QC Flag:automated observation with no human augmentation
Text:KMNH 200031Z AUTO 23008KT 10SM SCT110 20/06 A3020 RMK AO2
Temperature: 20.0°C ( 68°F)
Dewpoint: 6.0°C ( 43°F) [RH = 40%]
Pressure (altimeter):30.20 inches Hg (1022.8 mb)
Winds:from the SW (230 degrees) at 9 MPH (8 knots; 4.1 m/s)
Visibility:10 or more sm (16+ km)
Ceiling:at least 12,000 feet AGL
Clouds: scattered clouds at 11000 feet AGL
QC Flag:automated observation with no human augmentation
Text:KMNH 200011Z AUTO 21008KT 10SM SCT120 21/07 A3020 RMK AO2
Temperature: 21.0°C ( 70°F)
Dewpoint: 7.0°C ( 45°F) [RH = 40%]
Pressure (altimeter):30.20 inches Hg (1022.8 mb)
Winds:from the SSW (210 degrees) at 9 MPH (8 knots; 4.1 m/s)
Visibility:10 or more sm (16+ km)
Ceiling:at least 12,000 feet AGL
Clouds: scattered clouds at 12000 feet AGL
QC Flag:automated observation with no human augmentation
Text:KMNH 192351Z AUTO 21008KT 10SM SCT110 23/06 A3019 RMK AO2
Temperature: 23.0°C ( 73°F)
Dewpoint: 6.0°C ( 43°F) [RH = 33%]
Pressure (altimeter):30.19 inches Hg (1022.4 mb)
Winds:from the SSW (210 degrees) at 9 MPH (8 knots; 4.1 m/s)
Visibility:10 or more sm (16+ km)
Ceiling:at least 12,000 feet AGL
Clouds: scattered clouds at 11000 feet AGL
QC Flag:automated observation with no human augmentation
Text:KMNH 192330Z AUTO 24006KT 10SM BKN120 23/06 A3019 RMK AO2
Temperature: 23.0°C ( 73°F)
Dewpoint: 6.0°C ( 43°F) [RH = 33%]
Pressure (altimeter):30.19 inches Hg (1022.4 mb)
Winds:from the WSW (240 degrees) at 7 MPH (6 knots; 3.1 m/s)
Visibility:10 or more sm (16+ km)
Ceiling:12000 feet AGL
Clouds: broken clouds at 12000 feet AGL
QC Flag:automated observation with no human augmentation
Text:KMNH 192311Z AUTO 18004KT 10SM SCT120 23/08 A3019 RMK AO2
Temperature: 23.0°C ( 73°F)
Dewpoint: 8.0°C ( 46°F) [RH = 38%]
Pressure (altimeter):30.19 inches Hg (1022.4 mb)
Winds:from the S (180 degrees) at 5 MPH (4 knots; 2.1 m/s)
Visibility:10 or more sm (16+ km)
Ceiling:at least 12,000 feet AGL
Clouds: scattered clouds at 12000 feet AGL
QC Flag:automated observation with no human augmentation
Text:KMNH 192248Z AUTO 18005KT 10SM CLR 26/05 A3018 RMK AO2
Temperature: 26.0°C ( 79°F)
Dewpoint: 5.0°C ( 41°F) [RH = 26%]
Pressure (altimeter):30.18 inches Hg (1022.1 mb)
Winds:from the S (180 degrees) at 6 MPH (5 knots; 2.6 m/s)
Visibility:10 or more sm (16+ km)
Ceiling:at least 12,000 feet AGL
Clouds:sky clear below 12,000 feet AGL
QC Flag:automated observation with no human augmentation
Text:KMNH 192230Z AUTO 00000KT 10SM CLR 26/02 A3018 RMK AO2
Temperature: 26.0°C ( 79°F)
Dewpoint: 2.0°C ( 36°F) [RH = 21%]
Pressure (altimeter):30.18 inches Hg (1022.1 mb)
Winds:calm
Visibility:10 or more sm (16+ km)
Ceiling:at least 12,000 feet AGL
Clouds:sky clear below 12,000 feet AGL
QC Flag:automated observation with no human augmentation
Text:KMNH 192211Z AUTO 00000KT 10SM CLR 26/03 A3018 RMK AO2
Temperature: 26.0°C ( 79°F)
Dewpoint: 3.0°C ( 37°F) [RH = 23%]
Pressure (altimeter):30.18 inches Hg (1022.1 mb)
Winds:calm
Visibility:10 or more sm (16+ km)
Ceiling:at least 12,000 feet AGL
Clouds:sky clear below 12,000 feet AGL
QC Flag:automated observation with no human augmentation
Text:KMNH 192151Z AUTO 00000KT 10SM SCT120 26/03 A3019 RMK AO2
Temperature: 26.0°C ( 79°F)
Dewpoint: 3.0°C ( 37°F) [RH = 23%]
Pressure (altimeter):30.19 inches Hg (1022.4 mb)
Winds:calm
Visibility:10 or more sm (16+ km)
Ceiling:at least 12,000 feet AGL
Clouds: scattered clouds at 12000 feet AGL
QC Flag:automated observation with no human augmentation
Text:KMNH 192130Z AUTO 18013G42KT 10SM SCT120 25/01 A3020 RMK AO2
Temperature: 25.0°C ( 77°F)
Dewpoint: 1.0°C ( 34°F) [RH = 21%]
Pressure (altimeter):30.20 inches Hg (1022.8 mb)
Winds:from the S (180 degrees) at 15 MPH (13 knots; 6.7 m/s) gusting to 48 MPH (42 knots; 21.6 m/s)
Visibility:10 or more sm (16+ km)
Ceiling:at least 12,000 feet AGL
Clouds: scattered clouds at 12000 feet AGL
QC Flag:automated observation with no human augmentation
Text:KMNH 192111Z AUTO 28004KT 10SM CLR 26/02 A3020 RMK AO2
Temperature: 26.0°C ( 79°F)
Dewpoint: 2.0°C ( 36°F) [RH = 21%]
Pressure (altimeter):30.20 inches Hg (1022.8 mb)
Winds:from the W (280 degrees) at 5 MPH (4 knots; 2.1 m/s)
Visibility:10 or more sm (16+ km)
Ceiling:at least 12,000 feet AGL
Clouds:sky clear below 12,000 feet AGL
QC Flag:automated observation with no human augmentation
Text:KMNH 192048Z AUTO 17007KT 10SM CLR 27/02 A3020 RMK AO2
Temperature: 27.0°C ( 81°F)
Dewpoint: 2.0°C ( 36°F) [RH = 20%]
Pressure (altimeter):30.20 inches Hg (1022.8 mb)
Winds:from the S (170 degrees) at 8 MPH (7 knots; 3.6 m/s)
Visibility:10 or more sm (16+ km)
Ceiling:at least 12,000 feet AGL
Clouds:sky clear below 12,000 feet AGL
QC Flag:automated observation with no human augmentation
Text:KMNH 192030Z AUTO 00000KT 10SM CLR 27/00 A3021 RMK AO2
Temperature: 27.0°C ( 81°F)
Dewpoint: 0.0°C ( 32°F) [RH = 17%]
Pressure (altimeter):30.21 inches Hg (1023.1 mb)
Winds:calm
Visibility:10 or more sm (16+ km)
Ceiling:at least 12,000 feet AGL
Clouds:sky clear below 12,000 feet AGL
QC Flag:automated observation with no human augmentation
Text:KMNH 192009Z AUTO 31006KT 10SM CLR 27/01 A3022 RMK AO2
Temperature: 27.0°C ( 81°F)
Dewpoint: 1.0°C ( 34°F) [RH = 18%]
Pressure (altimeter):30.22 inches Hg (1023.5 mb)
Winds:from the NW (310 degrees) at 7 MPH (6 knots; 3.1 m/s)
Visibility:10 or more sm (16+ km)
Ceiling:at least 12,000 feet AGL
Clouds:sky clear below 12,000 feet AGL
QC Flag:automated observation with no human augmentation
Text:KMNH 191950Z AUTO 30004KT 10SM CLR 27/01 A3023 RMK AO2
Temperature: 27.0°C ( 81°F)
Dewpoint: 1.0°C ( 34°F) [RH = 18%]
Pressure (altimeter):30.23 inches Hg (1023.8 mb)
Winds:from the WNW (300 degrees) at 5 MPH (4 knots; 2.1 m/s)
Visibility:10 or more sm (16+ km)
Ceiling:at least 12,000 feet AGL
Clouds:sky clear below 12,000 feet AGL
QC Flag:automated observation with no human augmentation
Text:KMNH 191930Z AUTO 28008KT 10SM CLR 27/01 A3024 RMK AO2
Temperature: 27.0°C ( 81°F)
Dewpoint: 1.0°C ( 34°F) [RH = 18%]
Pressure (altimeter):30.24 inches Hg (1024.1 mb)
Winds:from the W (280 degrees) at 9 MPH (8 knots; 4.1 m/s)
Visibility:10 or more sm (16+ km)
Ceiling:at least 12,000 feet AGL
Clouds:sky clear below 12,000 feet AGL
QC Flag:automated observation with no human augmentation
Text:KMNH 191910Z AUTO 10004KT 10SM SCT120 26/00 A3024 RMK AO2
Temperature: 26.0°C ( 79°F)
Dewpoint: 0.0°C ( 32°F) [RH = 18%]
Pressure (altimeter):30.24 inches Hg (1024.1 mb)
Winds:from the E (100 degrees) at 5 MPH (4 knots; 2.1 m/s)
Visibility:10 or more sm (16+ km)
Ceiling:at least 12,000 feet AGL
Clouds: scattered clouds at 12000 feet AGL
QC Flag:automated observation with no human augmentation
Text:KMNH 191850Z AUTO 22007KT 10SM CLR 27/01 A3025 RMK AO2
Temperature: 27.0°C ( 81°F)
Dewpoint: 1.0°C ( 34°F) [RH = 18%]
Pressure (altimeter):30.25 inches Hg (1024.5 mb)
Winds:from the SW (220 degrees) at 8 MPH (7 knots; 3.6 m/s)
Visibility:10 or more sm (16+ km)
Ceiling:at least 12,000 feet AGL
Clouds:sky clear below 12,000 feet AGL
QC Flag:automated observation with no human augmentation
Text:KMNH 191830Z AUTO 23011G16KT 190V270 10SM CLR 26/02 A3025 RMK AO2
Temperature: 26.0°C ( 79°F)
Dewpoint: 2.0°C ( 36°F) [RH = 21%]
Pressure (altimeter):30.25 inches Hg (1024.5 mb)
Winds:from the SW (230 degrees) at 13 MPH (11 knots; 5.7 m/s) gusting to 18 MPH (16 knots; 8.2 m/s)
Visibility:10 or more sm (16+ km)
Ceiling:at least 12,000 feet AGL
Clouds:sky clear below 12,000 feet AGL
QC Flag:automated observation with no human augmentation
Text:KMNH 191811Z AUTO 30006KT 10SM CLR 26/02 A3026 RMK AO2
Temperature: 26.0°C ( 79°F)
Dewpoint: 2.0°C ( 36°F) [RH = 21%]
Pressure (altimeter):30.26 inches Hg (1024.8 mb)
Winds:from the WNW (300 degrees) at 7 MPH (6 knots; 3.1 m/s)
Visibility:10 or more sm (16+ km)
Ceiling:at least 12,000 feet AGL
Clouds:sky clear below 12,000 feet AGL
QC Flag:automated observation with no human augmentation
Text:KMNH 191750Z AUTO 26008KT 10SM CLR 26/03 A3026 RMK AO2
Temperature: 26.0°C ( 79°F)
Dewpoint: 3.0°C ( 37°F) [RH = 23%]
Pressure (altimeter):30.26 inches Hg (1024.8 mb)
Winds:from the W (260 degrees) at 9 MPH (8 knots; 4.1 m/s)
Visibility:10 or more sm (16+ km)
Ceiling:at least 12,000 feet AGL
Clouds:sky clear below 12,000 feet AGL
QC Flag:automated observation with no human augmentation
Text:KMNH 191728Z AUTO 00000KT 10SM CLR 26/01 A3027 RMK AO2
Temperature: 26.0°C ( 79°F)
Dewpoint: 1.0°C ( 34°F) [RH = 20%]
Pressure (altimeter):30.27 inches Hg (1025.1 mb)
Winds:calm
Visibility:10 or more sm (16+ km)
Ceiling:at least 12,000 feet AGL
Clouds:sky clear below 12,000 feet AGL
QC Flag:automated observation with no human augmentation
Text:KMNH 191711Z AUTO 00000KT 10SM CLR 26/03 A3027 RMK AO2
Temperature: 26.0°C ( 79°F)
Dewpoint: 3.0°C ( 37°F) [RH = 23%]
Pressure (altimeter):30.27 inches Hg (1025.1 mb)
Winds:calm
Visibility:10 or more sm (16+ km)
Ceiling:at least 12,000 feet AGL
Clouds:sky clear below 12,000 feet AGL
QC Flag:automated observation with no human augmentation
Text:KMNH 191650Z AUTO 00000KT 10SM CLR 25/02 A3027 RMK AO2
Temperature: 25.0°C ( 77°F)
Dewpoint: 2.0°C ( 36°F) [RH = 22%]
Pressure (altimeter):30.27 inches Hg (1025.1 mb)
Winds:calm
Visibility:10 or more sm (16+ km)
Ceiling:at least 12,000 feet AGL
Clouds:sky clear below 12,000 feet AGL
QC Flag:automated observation with no human augmentation
Text:KMNH 191631Z AUTO 00000KT 10SM CLR 25/03 A3028 RMK AO2
Temperature: 25.0°C ( 77°F)
Dewpoint: 3.0°C ( 37°F) [RH = 24%]
Pressure (altimeter):30.28 inches Hg (1025.5 mb)
Winds:calm
Visibility:10 or more sm (16+ km)
Ceiling:at least 12,000 feet AGL
Clouds:sky clear below 12,000 feet AGL
QC Flag:automated observation with no human augmentation
Text:KMNH 191611Z AUTO 24003KT 10SM CLR 25/04 A3028 RMK AO2
Temperature: 25.0°C ( 77°F)
Dewpoint: 4.0°C ( 39°F) [RH = 26%]
Pressure (altimeter):30.28 inches Hg (1025.5 mb)
Winds:from the WSW (240 degrees) at 3 MPH (3 knots; 1.5 m/s)
Visibility:10 or more sm (16+ km)
Ceiling:at least 12,000 feet AGL
Clouds:sky clear below 12,000 feet AGL
QC Flag:automated observation with no human augmentation
Text:KMNH 191550Z AUTO 27003KT 10SM CLR 25/05 A3028 RMK AO2
Temperature: 25.0°C ( 77°F)
Dewpoint: 5.0°C ( 41°F) [RH = 28%]
Pressure (altimeter):30.28 inches Hg (1025.5 mb)
Winds:from the W (270 degrees) at 3 MPH (3 knots; 1.5 m/s)
Visibility:10 or more sm (16+ km)
Ceiling:at least 12,000 feet AGL
Clouds:sky clear below 12,000 feet AGL
QC Flag:automated observation with no human augmentation
Text:KMNH 191531Z AUTO 29004KT 10SM CLR 23/06 A3028 RMK AO2
Temperature: 23.0°C ( 73°F)
Dewpoint: 6.0°C ( 43°F) [RH = 33%]
Pressure (altimeter):30.28 inches Hg (1025.5 mb)
Winds:from the WNW (290 degrees) at 5 MPH (4 knots; 2.1 m/s)
Visibility:10 or more sm (16+ km)
Ceiling:at least 12,000 feet AGL
Clouds:sky clear below 12,000 feet AGL
QC Flag:automated observation with no human augmentation
Text:KMNH 191509Z AUTO 27007KT 10SM CLR 22/06 A3028 RMK AO2
Temperature: 22.0°C ( 72°F)
Dewpoint: 6.0°C ( 43°F) [RH = 35%]
Pressure (altimeter):30.28 inches Hg (1025.5 mb)
Winds:from the W (270 degrees) at 8 MPH (7 knots; 3.6 m/s)
Visibility:10 or more sm (16+ km)
Ceiling:at least 12,000 feet AGL
Clouds:sky clear below 12,000 feet AGL
QC Flag:automated observation with no human augmentation
Text:KMNH 191451Z AUTO 27007KT 10SM CLR 22/07 A3027 RMK AO2
Temperature: 22.0°C ( 72°F)
Dewpoint: 7.0°C ( 45°F) [RH = 38%]
Pressure (altimeter):30.27 inches Hg (1025.1 mb)
Winds:from the W (270 degrees) at 8 MPH (7 knots; 3.6 m/s)
Visibility:10 or more sm (16+ km)
Ceiling:at least 12,000 feet AGL
Clouds:sky clear below 12,000 feet AGL
QC Flag:automated observation with no human augmentation
Text:KMNH 191431Z AUTO 27005KT 10SM CLR 21/07 A3027 RMK AO2
Temperature: 21.0°C ( 70°F)
Dewpoint: 7.0°C ( 45°F) [RH = 40%]
Pressure (altimeter):30.27 inches Hg (1025.1 mb)
Winds:from the W (270 degrees) at 6 MPH (5 knots; 2.6 m/s)
Visibility:10 or more sm (16+ km)
Ceiling:at least 12,000 feet AGL
Clouds:sky clear below 12,000 feet AGL
QC Flag:automated observation with no human augmentation
Text:KMNH 191411Z AUTO 26007KT 10SM CLR 20/07 A3027 RMK AO2
Temperature: 20.0°C ( 68°F)
Dewpoint: 7.0°C ( 45°F) [RH = 43%]
Pressure (altimeter):30.27 inches Hg (1025.1 mb)
Winds:from the W (260 degrees) at 8 MPH (7 knots; 3.6 m/s)
Visibility:10 or more sm (16+ km)
Ceiling:at least 12,000 feet AGL
Clouds:sky clear below 12,000 feet AGL
QC Flag:automated observation with no human augmentation
Text:KMNH 191351Z AUTO 25006KT 10SM CLR 18/07 A3027 RMK AO2
Temperature: 18.0°C ( 64°F)
Dewpoint: 7.0°C ( 45°F) [RH = 49%]
Pressure (altimeter):30.27 inches Hg (1025.1 mb)
Winds:from the WSW (250 degrees) at 7 MPH (6 knots; 3.1 m/s)
Visibility:10 or more sm (16+ km)
Ceiling:at least 12,000 feet AGL
Clouds:sky clear below 12,000 feet AGL
QC Flag:automated observation with no human augmentation
Text:KMNH 191331Z AUTO 24006KT 10SM CLR 17/07 A3027 RMK AO2
Temperature: 17.0°C ( 63°F)
Dewpoint: 7.0°C ( 45°F) [RH = 52%]
Pressure (altimeter):30.27 inches Hg (1025.1 mb)
Winds:from the WSW (240 degrees) at 7 MPH (6 knots; 3.1 m/s)
Visibility:10 or more sm (16+ km)
Ceiling:at least 12,000 feet AGL
Clouds:sky clear below 12,000 feet AGL
QC Flag:automated observation with no human augmentation
Text:KMNH 191310Z AUTO 24008KT 10SM CLR 15/06 A3026 RMK AO2
Temperature: 15.0°C ( 59°F)
Dewpoint: 6.0°C ( 43°F) [RH = 55%]
Pressure (altimeter):30.26 inches Hg (1024.8 mb)
Winds:from the WSW (240 degrees) at 9 MPH (8 knots; 4.1 m/s)
Visibility:10 or more sm (16+ km)
Ceiling:at least 12,000 feet AGL
Clouds:sky clear below 12,000 feet AGL
QC Flag:automated observation with no human augmentation
Text:KMNH 191250Z AUTO 24008KT 10SM CLR 14/05 A3026 RMK AO2
Temperature: 14.0°C ( 57°F)
Dewpoint: 5.0°C ( 41°F) [RH = 55%]
Pressure (altimeter):30.26 inches Hg (1024.8 mb)
Winds:from the WSW (240 degrees) at 9 MPH (8 knots; 4.1 m/s)
Visibility:10 or more sm (16+ km)
Ceiling:at least 12,000 feet AGL
Clouds:sky clear below 12,000 feet AGL
QC Flag:automated observation with no human augmentation
Text:KMNH 191231Z AUTO 23010KT 10SM CLR 13/06 A3026 RMK AO2
Temperature: 13.0°C ( 55°F)
Dewpoint: 6.0°C ( 43°F) [RH = 62%]
Pressure (altimeter):30.26 inches Hg (1024.8 mb)
Winds:from the SW (230 degrees) at 12 MPH (10 knots; 5.1 m/s)
Visibility:10 or more sm (16+ km)
Ceiling:at least 12,000 feet AGL
Clouds:sky clear below 12,000 feet AGL
QC Flag:automated observation with no human augmentation
Text:KMNH 191210Z AUTO 22010KT 10SM CLR 14/06 A3025 RMK AO2
Temperature: 14.0°C ( 57°F)
Dewpoint: 6.0°C ( 43°F) [RH = 58%]
Pressure (altimeter):30.25 inches Hg (1024.5 mb)
Winds:from the SW (220 degrees) at 12 MPH (10 knots; 5.1 m/s)
Visibility:10 or more sm (16+ km)
Ceiling:at least 12,000 feet AGL
Clouds:sky clear below 12,000 feet AGL
QC Flag:automated observation with no human augmentation
Text:KMNH 191150Z AUTO 22010KT 10SM CLR 13/07 A3025 RMK AO2
Temperature: 13.0°C ( 55°F)
Dewpoint: 7.0°C ( 45°F) [RH = 67%]
Pressure (altimeter):30.25 inches Hg (1024.5 mb)
Winds:from the SW (220 degrees) at 12 MPH (10 knots; 5.1 m/s)
Visibility:10 or more sm (16+ km)
Ceiling:at least 12,000 feet AGL
Clouds:sky clear below 12,000 feet AGL
QC Flag:automated observation with no human augmentation
Text:KMNH 191130Z AUTO 22009KT 10SM CLR 12/08 A3025 RMK AO2
Temperature: 12.0°C ( 54°F)
Dewpoint: 8.0°C ( 46°F) [RH = 76%]
Pressure (altimeter):30.25 inches Hg (1024.5 mb)
Winds:from the SW (220 degrees) at 10 MPH (9 knots; 4.6 m/s)
Visibility:10 or more sm (16+ km)
Ceiling:at least 12,000 feet AGL
Clouds:sky clear below 12,000 feet AGL
QC Flag:automated observation with no human augmentation
Text:KMNH 191110Z AUTO 22010KT 10SM CLR 13/08 A3025 RMK AO2
Temperature: 13.0°C ( 55°F)
Dewpoint: 8.0°C ( 46°F) [RH = 72%]
Pressure (altimeter):30.25 inches Hg (1024.5 mb)
Winds:from the SW (220 degrees) at 12 MPH (10 knots; 5.1 m/s)
Visibility:10 or more sm (16+ km)
Ceiling:at least 12,000 feet AGL
Clouds:sky clear below 12,000 feet AGL
QC Flag:automated observation with no human augmentation
Text:KMNH 191051Z AUTO 21006KT 10SM CLR 12/08 A3025 RMK AO2
Temperature: 12.0°C ( 54°F)
Dewpoint: 8.0°C ( 46°F) [RH = 76%]
Pressure (altimeter):30.25 inches Hg (1024.5 mb)
Winds:from the SSW (210 degrees) at 7 MPH (6 knots; 3.1 m/s)
Visibility:10 or more sm (16+ km)
Ceiling:at least 12,000 feet AGL
Clouds:sky clear below 12,000 feet AGL
QC Flag:automated observation with no human augmentation
Text:KMNH 191030Z AUTO 22009KT 10SM CLR 13/09 A3026 RMK AO2
Temperature: 13.0°C ( 55°F)
Dewpoint: 9.0°C ( 48°F) [RH = 77%]
Pressure (altimeter):30.26 inches Hg (1024.8 mb)
Winds:from the SW (220 degrees) at 10 MPH (9 knots; 4.6 m/s)
Visibility:10 or more sm (16+ km)
Ceiling:at least 12,000 feet AGL
Clouds:sky clear below 12,000 feet AGL
QC Flag:automated observation with no human augmentation
Text:KMNH 191010Z AUTO 23008KT 10SM CLR 13/09 A3026 RMK AO2
Temperature: 13.0°C ( 55°F)
Dewpoint: 9.0°C ( 48°F) [RH = 77%]
Pressure (altimeter):30.26 inches Hg (1024.8 mb)
Winds:from the SW (230 degrees) at 9 MPH (8 knots; 4.1 m/s)
Visibility:10 or more sm (16+ km)
Ceiling:at least 12,000 feet AGL
Clouds:sky clear below 12,000 feet AGL
QC Flag:automated observation with no human augmentation
Text:KMNH 190950Z AUTO 20008KT 10SM CLR 13/09 A3026 RMK AO2
Temperature: 13.0°C ( 55°F)
Dewpoint: 9.0°C ( 48°F) [RH = 77%]
Pressure (altimeter):30.26 inches Hg (1024.8 mb)
Winds:from the SSW (200 degrees) at 9 MPH (8 knots; 4.1 m/s)
Visibility:10 or more sm (16+ km)
Ceiling:at least 12,000 feet AGL
Clouds:sky clear below 12,000 feet AGL
QC Flag:automated observation with no human augmentation
Text:KMNH 190931Z AUTO 20009KT 10SM CLR 13/10 A3027 RMK AO2
Temperature: 13.0°C ( 55°F)
Dewpoint: 10.0°C ( 50°F) [RH = 82%]
Pressure (altimeter):30.27 inches Hg (1025.1 mb)
Winds:from the SSW (200 degrees) at 10 MPH (9 knots; 4.6 m/s)
Visibility:10 or more sm (16+ km)
Ceiling:at least 12,000 feet AGL
Clouds:sky clear below 12,000 feet AGL
QC Flag:automated observation with no human augmentation
Text:KMNH 190910Z AUTO 20008KT 10SM CLR 14/10 A3027 RMK AO2
Temperature: 14.0°C ( 57°F)
Dewpoint: 10.0°C ( 50°F) [RH = 77%]
Pressure (altimeter):30.27 inches Hg (1025.1 mb)
Winds:from the SSW (200 degrees) at 9 MPH (8 knots; 4.1 m/s)
Visibility:10 or more sm (16+ km)
Ceiling:at least 12,000 feet AGL
Clouds:sky clear below 12,000 feet AGL
QC Flag:automated observation with no human augmentation
Text:KMNH 190851Z AUTO 20010KT 10SM CLR 13/10 A3027 RMK AO2
Temperature: 13.0°C ( 55°F)
Dewpoint: 10.0°C ( 50°F) [RH = 82%]
Pressure (altimeter):30.27 inches Hg (1025.1 mb)
Winds:from the SSW (200 degrees) at 12 MPH (10 knots; 5.1 m/s)
Visibility:10 or more sm (16+ km)
Ceiling:at least 12,000 feet AGL
Clouds:sky clear below 12,000 feet AGL
QC Flag:automated observation with no human augmentation
Text:KMNH 190831Z AUTO 21010KT 10SM CLR 13/10 A3028 RMK AO2
Temperature: 13.0°C ( 55°F)
Dewpoint: 10.0°C ( 50°F) [RH = 82%]
Pressure (altimeter):30.28 inches Hg (1025.5 mb)
Winds:from the SSW (210 degrees) at 12 MPH (10 knots; 5.1 m/s)
Visibility:10 or more sm (16+ km)
Ceiling:at least 12,000 feet AGL
Clouds:sky clear below 12,000 feet AGL
QC Flag:automated observation with no human augmentation
Text:KMNH 190811Z AUTO 21009KT 10SM CLR 13/10 A3028 RMK AO2
Temperature: 13.0°C ( 55°F)
Dewpoint: 10.0°C ( 50°F) [RH = 82%]
Pressure (altimeter):30.28 inches Hg (1025.5 mb)
Winds:from the SSW (210 degrees) at 10 MPH (9 knots; 4.6 m/s)
Visibility:10 or more sm (16+ km)
Ceiling:at least 12,000 feet AGL
Clouds:sky clear below 12,000 feet AGL
QC Flag:automated observation with no human augmentation
Text:KMNH 190750Z AUTO 21007KT 10SM CLR 13/10 A3028 RMK AO2
Temperature: 13.0°C ( 55°F)
Dewpoint: 10.0°C ( 50°F) [RH = 82%]
Pressure (altimeter):30.28 inches Hg (1025.5 mb)
Winds:from the SSW (210 degrees) at 8 MPH (7 knots; 3.6 m/s)
Visibility:10 or more sm (16+ km)
Ceiling:at least 12,000 feet AGL
Clouds:sky clear below 12,000 feet AGL
QC Flag:automated observation with no human augmentation
Text:KMNH 190730Z AUTO 20008KT 10SM CLR 14/10 A3029 RMK AO2
Temperature: 14.0°C ( 57°F)
Dewpoint: 10.0°C ( 50°F) [RH = 77%]
Pressure (altimeter):30.29 inches Hg (1025.8 mb)
Winds:from the SSW (200 degrees) at 9 MPH (8 knots; 4.1 m/s)
Visibility:10 or more sm (16+ km)
Ceiling:at least 12,000 feet AGL
Clouds:sky clear below 12,000 feet AGL
QC Flag:automated observation with no human augmentation
Text:KMNH 190709Z AUTO 19011KT 10SM CLR 15/10 A3030 RMK AO2
Temperature: 15.0°C ( 59°F)
Dewpoint: 10.0°C ( 50°F) [RH = 72%]
Pressure (altimeter):30.30 inches Hg (1026.2 mb)
Winds:from the S (190 degrees) at 13 MPH (11 knots; 5.7 m/s)
Visibility:10 or more sm (16+ km)
Ceiling:at least 12,000 feet AGL
Clouds:sky clear below 12,000 feet AGL
QC Flag:automated observation with no human augmentation
Text:KMNH 190651Z AUTO 20012KT 10SM CLR 15/10 A3030 RMK AO2
Temperature: 15.0°C ( 59°F)
Dewpoint: 10.0°C ( 50°F) [RH = 72%]
Pressure (altimeter):30.30 inches Hg (1026.2 mb)
Winds:from the SSW (200 degrees) at 14 MPH (12 knots; 6.2 m/s)
Visibility:10 or more sm (16+ km)
Ceiling:at least 12,000 feet AGL
Clouds:sky clear below 12,000 feet AGL
QC Flag:automated observation with no human augmentation
Text:KMNH 190630Z AUTO 19011KT 10SM CLR 16/10 A3030 RMK AO2
Temperature: 16.0°C ( 61°F)
Dewpoint: 10.0°C ( 50°F) [RH = 68%]
Pressure (altimeter):30.30 inches Hg (1026.2 mb)
Winds:from the S (190 degrees) at 13 MPH (11 knots; 5.7 m/s)
Visibility:10 or more sm (16+ km)
Ceiling:at least 12,000 feet AGL
Clouds:sky clear below 12,000 feet AGL
QC Flag:automated observation with no human augmentation
Text:KMNH 190609Z AUTO 18015G21KT 10SM SCT120 16/10 A3031 RMK AO2
Temperature: 16.0°C ( 61°F)
Dewpoint: 10.0°C ( 50°F) [RH = 68%]
Pressure (altimeter):30.31 inches Hg (1026.5 mb)
Winds:from the S (180 degrees) at 17 MPH (15 knots; 7.7 m/s) gusting to 24 MPH (21 knots; 10.8 m/s)
Visibility:10 or more sm (16+ km)
Ceiling:at least 12,000 feet AGL
Clouds: scattered clouds at 12000 feet AGL
QC Flag:automated observation with no human augmentation
Text:KMNH 190551Z AUTO 17011KT 10SM SCT120 16/09 A3031 RMK AO2
Temperature: 16.0°C ( 61°F)
Dewpoint: 9.0°C ( 48°F) [RH = 63%]
Pressure (altimeter):30.31 inches Hg (1026.5 mb)
Winds:from the S (170 degrees) at 13 MPH (11 knots; 5.7 m/s)
Visibility:10 or more sm (16+ km)
Ceiling:at least 12,000 feet AGL
Clouds: scattered clouds at 12000 feet AGL
QC Flag:automated observation with no human augmentation
Text:KMNH 190530Z AUTO 18011KT 10SM SCT120 16/09 A3032 RMK AO2
Temperature: 16.0°C ( 61°F)
Dewpoint: 9.0°C ( 48°F) [RH = 63%]
Pressure (altimeter):30.32 inches Hg (1026.8 mb)
Winds:from the S (180 degrees) at 13 MPH (11 knots; 5.7 m/s)
Visibility:10 or more sm (16+ km)
Ceiling:at least 12,000 feet AGL
Clouds: scattered clouds at 12000 feet AGL
QC Flag:automated observation with no human augmentation